sensor_id;sensor_type;location;lat;lon;timestamp;pressure;altitude;pressure_sealevel;temperature;humidity
68329;BME280;55182;56.864;60.554;2023-11-25T00:01:44;76217.19;;;-143.60;82.73
68329;BME280;55182;56.864;60.554;2023-11-25T00:04:10;76219.19;;;-143.60;82.55
68329;BME280;55182;56.864;60.554;2023-11-25T00:06:36;76215.16;;;-143.60;82.24
68329;BME280;55182;56.864;60.554;2023-11-25T00:09:01;76211.16;;;-143.60;82.29
68329;BME280;55182;56.864;60.554;2023-11-25T00:11:26;76195.06;;;-143.60;82.55
68329;BME280;55182;56.864;60.554;2023-11-25T00:13:52;76201.09;;;-143.60;82.96
68329;BME280;55182;56.864;60.554;2023-11-25T00:16:17;76195.06;;;-143.60;83.08
68329;BME280;55182;56.864;60.554;2023-11-25T00:18:43;76195.06;;;-143.60;83.05
68329;BME280;55182;56.864;60.554;2023-11-25T00:21:08;76207.13;;;-143.60;83.22
68329;BME280;55182;56.864;60.554;2023-11-25T00:23:34;76197.09;;;-143.60;82.80
68329;BME280;55182;56.864;60.554;2023-11-25T00:25:59;76199.09;;;-143.60;82.58
68329;BME280;55182;56.864;60.554;2023-11-25T00:28:25;76199.09;;;-143.60;82.67
68329;BME280;55182;56.864;60.554;2023-11-25T00:30:50;76195.06;;;-143.60;83.15
68329;BME280;55182;56.864;60.554;2023-11-25T00:33:16;76201.09;;;-143.60;83.40
68329;BME280;55182;56.864;60.554;2023-11-25T00:35:41;76191.06;;;-143.60;83.20
68329;BME280;55182;56.864;60.554;2023-11-25T00:38:07;76195.06;;;-143.60;83.17
68329;BME280;55182;56.864;60.554;2023-11-25T00:40:32;76191.06;;;-143.60;83.46
68329;BME280;55182;56.864;60.554;2023-11-25T00:42:57;76179.00;;;-143.60;83.38
68329;BME280;55182;56.864;60.554;2023-11-25T00:45:23;76181.00;;;-143.60;83.31
68329;BME280;55182;56.864;60.554;2023-11-25T00:47:48;76162.91;;;-143.60;83.56
68329;BME280;55182;56.864;60.554;2023-11-25T00:50:14;76168.94;;;-143.60;83.87
68329;BME280;55182;56.864;60.554;2023-11-25T00:52:39;76170.97;;;-143.60;84.01
68329;BME280;55182;56.864;60.554;2023-11-25T00:55:05;76170.97;;;-143.60;83.61
68329;BME280;55182;56.864;60.554;2023-11-25T00:57:31;76168.94;;;-143.60;83.34
68329;BME280;55182;56.864;60.554;2023-11-25T00:59:57;76179.00;;;-143.60;83.02
68329;BME280;55182;56.864;60.554;2023-11-25T01:02:22;76185.03;;;-143.60;82.84
68329;BME280;55182;56.864;60.554;2023-11-25T01:04:48;76166.94;;;-143.60;83.14
68329;BME280;55182;56.864;60.554;2023-11-25T01:07:13;76168.94;;;-143.60;83.34
68329;BME280;55182;56.864;60.554;2023-11-25T01:09:39;76164.94;;;-143.60;83.84
68329;BME280;55182;56.864;60.554;2023-11-25T01:12:04;76166.94;;;-143.60;83.80
68329;BME280;55182;56.864;60.554;2023-11-25T01:14:32;76162.91;;;-143.60;83.74
68329;BME280;55182;56.864;60.554;2023-11-25T01:16:59;76162.91;;;-143.60;83.60
68329;BME280;55182;56.864;60.554;2023-11-25T01:19:25;76172.97;;;-143.60;83.46
68329;BME280;55182;56.864;60.554;2023-11-25T01:21:50;76158.91;;;-143.60;82.61
68329;BME280;55182;56.864;60.554;2023-11-25T01:24:16;76170.97;;;-143.60;82.75
68329;BME280;55182;56.864;60.554;2023-11-25T01:26:41;76162.91;;;-143.60;82.80
68329;BME280;55182;56.864;60.554;2023-11-25T01:29:07;76164.94;;;-143.60;83.15
68329;BME280;55182;56.864;60.554;2023-11-25T01:31:33;76166.94;;;-143.60;83.07
68329;BME280;55182;56.864;60.554;2023-11-25T01:33:58;76179.00;;;-143.60;82.80
68329;BME280;55182;56.864;60.554;2023-11-25T01:36:24;76179.00;;;-143.60;82.58
68329;BME280;55182;56.864;60.554;2023-11-25T01:38:49;76170.97;;;-143.60;82.66
68329;BME280;55182;56.864;60.554;2023-11-25T01:41:15;76170.97;;;-143.60;82.74
68329;BME280;55182;56.864;60.554;2023-11-25T01:43:41;76174.97;;;-143.60;83.11
68329;BME280;55182;56.864;60.554;2023-11-25T01:46:06;76177.00;;;-143.60;83.02
68329;BME280;55182;56.864;60.554;2023-11-25T01:48:32;76179.00;;;-143.60;83.23
68329;BME280;55182;56.864;60.554;2023-11-25T01:50:58;76185.03;;;-143.60;83.30
68329;BME280;55182;56.864;60.554;2023-11-25T01:53:24;76197.09;;;-143.60;83.38
68329;BME280;55182;56.864;60.554;2023-11-25T01:55:51;76189.03;;;-143.60;83.51
68329;BME280;55182;56.864;60.554;2023-11-25T01:58:18;76209.13;;;-143.60;83.89
68329;BME280;55182;56.864;60.554;2023-11-25T02:00:44;76211.16;;;-143.60;83.97
68329;BME280;55182;56.864;60.554;2023-11-25T02:03:12;76223.22;;;-143.60;84.32
68329;BME280;55182;56.864;60.554;2023-11-25T02:05:39;76221.19;;;-143.60;84.64
68329;BME280;55182;56.864;60.554;2023-11-25T02:08:04;76209.13;;;-143.60;84.88
68329;BME280;55182;56.864;60.554;2023-11-25T02:10:31;76203.13;;;-143.60;85.01
68329;BME280;55182;56.864;60.554;2023-11-25T02:12:56;76207.13;;;-143.60;84.91
68329;BME280;55182;56.864;60.554;2023-11-25T02:15:22;76201.09;;;-143.60;85.01
68329;BME280;55182;56.864;60.554;2023-11-25T02:17:47;76185.03;;;-143.60;84.72
68329;BME280;55182;56.864;60.554;2023-11-25T02:20:13;76177.00;;;-143.60;84.70
68329;BME280;55182;56.864;60.554;2023-11-25T02:22:38;76158.91;;;-143.60;85.11
68329;BME280;55182;56.864;60.554;2023-11-25T02:25:04;76144.84;;;-143.60;85.08
68329;BME280;55182;56.864;60.554;2023-11-25T02:27:29;76138.81;;;-143.60;85.15
68329;BME280;55182;56.864;60.554;2023-11-25T02:29:55;76146.84;;;-143.60;85.42
68329;BME280;55182;56.864;60.554;2023-11-25T02:32:20;76142.81;;;-143.60;85.16
68329;BME280;55182;56.864;60.554;2023-11-25T02:34:46;76146.84;;;-143.60;85.05
68329;BME280;55182;56.864;60.554;2023-11-25T02:37:12;76138.81;;;-143.60;85.04
68329;BME280;55182;56.864;60.554;2023-11-25T02:39:38;76138.81;;;-143.60;85.04
68329;BME280;55182;56.864;60.554;2023-11-25T02:42:03;76138.81;;;-143.60;85.13
68329;BME280;55182;56.864;60.554;2023-11-25T02:44:29;76140.81;;;-143.60;85.44
68329;BME280;55182;56.864;60.554;2023-11-25T02:46:54;76130.78;;;-143.60;85.42
68329;BME280;55182;56.864;60.554;2023-11-25T02:49:20;76136.81;;;-143.60;85.44
68329;BME280;55182;56.864;60.554;2023-11-25T02:51:52;76122.72;;;-143.60;85.13
68329;BME280;55182;56.864;60.554;2023-11-25T02:54:19;76110.69;;;-143.60;85.04
68329;BME280;55182;56.864;60.554;2023-11-25T02:56:44;76106.66;;;-143.60;85.03
68329;BME280;55182;56.864;60.554;2023-11-25T02:59:10;76096.59;;;-143.60;85.00
68329;BME280;55182;56.864;60.554;2023-11-25T03:01:35;76098.63;;;-143.60;85.14
68329;BME280;55182;56.864;60.554;2023-11-25T03:04:01;76090.59;;;-143.60;84.92
68329;BME280;55182;56.864;60.554;2023-11-25T03:06:27;76096.59;;;-143.60;84.94
68329;BME280;55182;56.864;60.554;2023-11-25T03:08:52;76094.59;;;-143.60;84.85
68329;BME280;55182;56.864;60.554;2023-11-25T03:11:21;76090.59;;;-143.60;85.02
68329;BME280;55182;56.864;60.554;2023-11-25T03:13:47;76094.59;;;-143.60;84.93
68329;BME280;55182;56.864;60.554;2023-11-25T03:16:13;76090.59;;;-143.60;84.80
68329;BME280;55182;56.864;60.554;2023-11-25T03:18:38;76086.56;;;-143.60;84.89
68329;BME280;55182;56.864;60.554;2023-11-25T03:21:07;76080.53;;;-143.60;84.72
68329;BME280;55182;56.864;60.554;2023-11-25T03:23:32;76080.53;;;-143.60;84.82
68329;BME280;55182;56.864;60.554;2023-11-25T03:25:58;76080.53;;;-143.60;84.57
68329;BME280;55182;56.864;60.554;2023-11-25T03:28:23;76068.47;;;-143.60;84.85
68329;BME280;55182;56.864;60.554;2023-11-25T03:30:49;76066.47;;;-143.60;84.71
68329;BME280;55182;56.864;60.554;2023-11-25T03:33:14;76058.44;;;-143.60;84.87
68329;BME280;55182;56.864;60.554;2023-11-25T03:35:40;76058.44;;;-143.60;84.86
68329;BME280;55182;56.864;60.554;2023-11-25T03:38:05;76058.44;;;-143.60;84.65
68329;BME280;55182;56.864;60.554;2023-11-25T03:40:31;76048.38;;;-143.60;84.86
68329;BME280;55182;56.864;60.554;2023-11-25T03:42:56;76038.34;;;-143.60;85.21
68329;BME280;55182;56.864;60.554;2023-11-25T03:45:22;76042.34;;;-143.60;85.41
68329;BME280;55182;56.864;60.554;2023-11-25T03:47:48;76036.31;;;-143.60;85.63
68329;BME280;55182;56.864;60.554;2023-11-25T03:50:13;76030.31;;;-143.60;85.42
68329;BME280;55182;56.864;60.554;2023-11-25T03:52:39;76018.25;;;-143.60;85.58
68329;BME280;55182;56.864;60.554;2023-11-25T03:55:05;76018.25;;;-143.60;85.65
68329;BME280;55182;56.864;60.554;2023-11-25T03:57:31;76018.25;;;-143.60;85.34
68329;BME280;55182;56.864;60.554;2023-11-25T03:59:56;76014.22;;;-143.60;85.50
68329;BME280;55182;56.864;60.554;2023-11-25T04:02:22;76004.19;;;-143.60;85.39
68329;BME280;55182;56.864;60.554;2023-11-25T04:04:47;76002.16;;;-143.60;85.52
68329;BME280;55182;56.864;60.554;2023-11-25T04:07:13;75990.09;;;-143.60;85.44
68329;BME280;55182;56.864;60.554;2023-11-25T04:09:38;75974.03;;;-143.60;85.55
68329;BME280;55182;56.864;60.554;2023-11-25T04:12:04;75976.03;;;-143.60;85.53
68329;BME280;55182;56.864;60.554;2023-11-25T04:14:29;75970.00;;;-143.60;85.36
68329;BME280;55182;56.864;60.554;2023-11-25T04:16:55;75966.00;;;-143.60;85.32
68329;BME280;55182;56.864;60.554;2023-11-25T04:19:20;75959.97;;;-143.60;85.46
68329;BME280;55182;56.864;60.554;2023-11-25T04:21:46;75955.94;;;-143.60;85.34
68329;BME280;55182;56.864;60.554;2023-11-25T04:24:12;75945.91;;;-143.60;85.48
68329;BME280;55182;56.864;60.554;2023-11-25T04:26:37;75945.91;;;-143.60;85.34
68329;BME280;55182;56.864;60.554;2023-11-25T04:29:03;75941.88;;;-143.60;85.46
68329;BME280;55182;56.864;60.554;2023-11-25T04:31:29;75937.88;;;-143.60;85.33
68329;BME280;55182;56.864;60.554;2023-11-25T04:33:54;75933.84;;;-143.60;85.19
68329;BME280;55182;56.864;60.554;2023-11-25T04:36:19;75935.84;;;-143.60;85.54
68329;BME280;55182;56.864;60.554;2023-11-25T04:38:45;75929.81;;;-143.60;85.50
68329;BME280;55182;56.864;60.554;2023-11-25T04:41:10;75935.84;;;-143.60;85.38
68329;BME280;55182;56.864;60.554;2023-11-25T04:43:36;75931.84;;;-143.60;85.60
68329;BME280;55182;56.864;60.554;2023-11-25T04:46:01;75913.75;;;-143.60;85.72
68329;BME280;55182;56.864;60.554;2023-11-25T04:48:27;75917.78;;;-143.60;85.54
68329;BME280;55182;56.864;60.554;2023-11-25T04:50:52;75911.75;;;-143.60;85.56
68329;BME280;55182;56.864;60.554;2023-11-25T04:53:18;75907.72;;;-143.60;85.52
68329;BME280;55182;56.864;60.554;2023-11-25T04:55:43;75905.72;;;-143.60;85.71
68329;BME280;55182;56.864;60.554;2023-11-25T04:58:09;75909.72;;;-143.60;85.92
68329;BME280;55182;56.864;60.554;2023-11-25T05:00:34;75905.72;;;-143.60;85.66
68329;BME280;55182;56.864;60.554;2023-11-25T05:03:00;75893.66;;;-143.60;85.87
68329;BME280;55182;56.864;60.554;2023-11-25T05:05:25;75891.66;;;-143.60;86.00
68329;BME280;55182;56.864;60.554;2023-11-25T05:07:51;75885.63;;;-143.60;85.97
68329;BME280;55182;56.864;60.554;2023-11-25T05:10:16;75873.56;;;-143.60;86.24
68329;BME280;55182;56.864;60.554;2023-11-25T05:12:42;75865.53;;;-143.60;86.32
68329;BME280;55182;56.864;60.554;2023-11-25T05:15:08;75863.53;;;-143.60;86.11
68329;BME280;55182;56.864;60.554;2023-11-25T05:17:33;75853.47;;;-143.60;86.06
68329;BME280;55182;56.864;60.554;2023-11-25T05:19:59;75847.44;;;-143.60;86.05
68329;BME280;55182;56.864;60.554;2023-11-25T05:22:24;75849.44;;;-143.60;86.20
68329;BME280;55182;56.864;60.554;2023-11-25T05:24:50;75837.41;;;-143.60;86.36
68329;BME280;55182;56.864;60.554;2023-11-25T05:27:15;75839.41;;;-143.60;86.19
68329;BME280;55182;56.864;60.554;2023-11-25T05:29:41;75833.38;;;-143.60;86.27
68329;BME280;55182;56.864;60.554;2023-11-25T05:32:07;75831.38;;;-143.60;86.24
68329;BME280;55182;56.864;60.554;2023-11-25T05:34:32;75827.34;;;-143.60;86.60
68329;BME280;55182;56.864;60.554;2023-11-25T05:36:57;75829.34;;;-143.60;86.32
68329;BME280;55182;56.864;60.554;2023-11-25T05:39:23;75827.34;;;-143.60;86.50
68329;BME280;55182;56.864;60.554;2023-11-25T05:41:48;75825.34;;;-143.60;86.52
68329;BME280;55182;56.864;60.554;2023-11-25T05:44:14;75825.34;;;-143.60;86.75
68329;BME280;55182;56.864;60.554;2023-11-25T05:46:39;75813.28;;;-143.60;86.67
68329;BME280;55182;56.864;60.554;2023-11-25T05:49:05;75803.25;;;-143.60;86.57
68329;BME280;55182;56.864;60.554;2023-11-25T05:51:37;75809.25;;;-143.60;86.78
68329;BME280;55182;56.864;60.554;2023-11-25T05:54:04;75805.25;;;-143.60;86.71
68329;BME280;55182;56.864;60.554;2023-11-25T05:56:29;75803.25;;;-143.60;86.84
68329;BME280;55182;56.864;60.554;2023-11-25T05:58:55;75801.22;;;-143.60;86.75
68329;BME280;55182;56.864;60.554;2023-11-25T06:01:20;75795.19;;;-143.60;87.07
68329;BME280;55182;56.864;60.554;2023-11-25T06:03:46;75777.13;;;-143.60;87.35
68329;BME280;55182;56.864;60.554;2023-11-25T06:06:11;75773.09;;;-143.60;86.93
68329;BME280;55182;56.864;60.554;2023-11-25T06:08:37;75761.03;;;-143.60;87.02
68329;BME280;55182;56.864;60.554;2023-11-25T06:11:03;75753.00;;;-143.60;86.84
68329;BME280;55182;56.864;60.554;2023-11-25T06:13:28;75744.97;;;-143.60;86.83
68329;BME280;55182;56.864;60.554;2023-11-25T06:15:54;75732.91;;;-143.60;86.63
68329;BME280;55182;56.864;60.554;2023-11-25T06:18:19;75728.91;;;-143.60;86.51
68329;BME280;55182;56.864;60.554;2023-11-25T06:20:45;75720.84;;;-143.60;86.36
68329;BME280;55182;56.864;60.554;2023-11-25T06:23:10;75720.84;;;-143.60;86.37
68329;BME280;55182;56.864;60.554;2023-11-25T06:25:36;75706.78;;;-143.60;86.62
68329;BME280;55182;56.864;60.554;2023-11-25T06:28:01;75696.75;;;-143.60;86.33
68329;BME280;55182;56.864;60.554;2023-11-25T06:30:27;75694.75;;;-143.60;85.98
68329;BME280;55182;56.864;60.554;2023-11-25T06:32:52;75688.72;;;-143.60;85.84
68329;BME280;55182;56.864;60.554;2023-11-25T06:35:17;75684.69;;;-143.60;85.67
68329;BME280;55182;56.864;60.554;2023-11-25T06:37:43;75684.69;;;-143.60;85.81
68329;BME280;55182;56.864;60.554;2023-11-25T06:40:08;75680.69;;;-143.60;85.76
68329;BME280;55182;56.864;60.554;2023-11-25T06:42:34;75680.69;;;-143.60;85.80
68329;BME280;55182;56.864;60.554;2023-11-25T06:44:59;75670.63;;;-143.60;85.52
68329;BME280;55182;56.864;60.554;2023-11-25T06:47:25;75676.66;;;-143.60;85.65
68329;BME280;55182;56.864;60.554;2023-11-25T06:49:50;75678.66;;;-143.60;85.70
68329;BME280;55182;56.864;60.554;2023-11-25T06:52:16;75680.69;;;-143.60;85.73
68329;BME280;55182;56.864;60.554;2023-11-25T06:54:42;75676.66;;;-143.60;86.11
68329;BME280;55182;56.864;60.554;2023-11-25T06:57:07;75672.63;;;-143.60;85.88
68329;BME280;55182;56.864;60.554;2023-11-25T06:59:33;75672.63;;;-143.60;86.39
68329;BME280;55182;56.864;60.554;2023-11-25T07:01:58;75672.63;;;-143.60;86.47
68329;BME280;55182;56.864;60.554;2023-11-25T07:04:24;75664.59;;;-143.60;86.63
68329;BME280;55182;56.864;60.554;2023-11-25T07:06:49;75668.63;;;-143.60;86.89
68329;BME280;55182;56.864;60.554;2023-11-25T07:09:15;75664.59;;;-143.60;87.16
68329;BME280;55182;56.864;60.554;2023-11-25T07:11:40;75662.59;;;-143.60;87.27
68329;BME280;55182;56.864;60.554;2023-11-25T07:14:06;75658.56;;;-143.60;87.56
68329;BME280;55182;56.864;60.554;2023-11-25T07:16:32;75658.56;;;-143.60;87.62
68329;BME280;55182;56.864;60.554;2023-11-25T07:18:58;75660.59;;;-143.60;88.06
68329;BME280;55182;56.864;60.554;2023-11-25T07:21:23;75656.56;;;-143.60;88.34
68329;BME280;55182;56.864;60.554;2023-11-25T07:23:49;75656.56;;;-143.60;88.63
68329;BME280;55182;56.864;60.554;2023-11-25T07:26:14;75660.59;;;-143.60;88.92
68329;BME280;55182;56.864;60.554;2023-11-25T07:28:41;75662.59;;;-143.60;89.07
68329;BME280;55182;56.864;60.554;2023-11-25T07:31:07;75652.53;;;-143.60;89.16
68329;BME280;55182;56.864;60.554;2023-11-25T07:33:33;75642.50;;;-143.60;89.07
68329;BME280;55182;56.864;60.554;2023-11-25T07:35:58;75638.47;;;-143.60;89.24
68329;BME280;55182;56.864;60.554;2023-11-25T07:38:24;75640.50;;;-143.60;89.47
68329;BME280;55182;56.864;60.554;2023-11-25T07:40:49;75630.44;;;-143.60;89.34
68329;BME280;55182;56.864;60.554;2023-11-25T07:43:15;75622.41;;;-143.60;89.40
68329;BME280;55182;56.864;60.554;2023-11-25T07:45:41;75618.38;;;-143.60;89.46
68329;BME280;55182;56.864;60.554;2023-11-25T07:48:07;75614.38;;;-143.60;89.29
68329;BME280;55182;56.864;60.554;2023-11-25T07:50:32;75602.31;;;-143.60;89.46
68329;BME280;55182;56.864;60.554;2023-11-25T07:52:58;75592.25;;;-143.60;89.40
68329;BME280;55182;56.864;60.554;2023-11-25T07:55:24;75592.25;;;-143.60;89.22
68329;BME280;55182;56.864;60.554;2023-11-25T07:57:49;75580.22;;;-143.60;89.24
68329;BME280;55182;56.864;60.554;2023-11-25T08:00:15;75588.25;;;-143.60;88.95
68329;BME280;55182;56.864;60.554;2023-11-25T08:02:41;75580.22;;;-143.60;89.09
68329;BME280;55182;56.864;60.554;2023-11-25T08:05:07;75580.22;;;-143.60;89.08
68329;BME280;55182;56.864;60.554;2023-11-25T08:07:32;75566.16;;;-143.60;88.84
68329;BME280;55182;56.864;60.554;2023-11-25T08:09:58;75570.16;;;-143.60;88.86
68329;BME280;55182;56.864;60.554;2023-11-25T08:12:23;75554.09;;;-143.60;88.82
68329;BME280;55182;56.864;60.554;2023-11-25T08:14:49;75564.13;;;-143.60;88.68
68329;BME280;55182;56.864;60.554;2023-11-25T08:17:14;75560.13;;;-143.60;88.58
68329;BME280;55182;56.864;60.554;2023-11-25T08:19:40;75562.13;;;-143.60;88.61
68329;BME280;55182;56.864;60.554;2023-11-25T08:22:05;75554.09;;;-143.60;88.79
68329;BME280;55182;56.864;60.554;2023-11-25T08:24:33;75544.03;;;-143.60;88.91
68329;BME280;55182;56.864;60.554;2023-11-25T08:26:58;75538.03;;;-143.60;89.03
68329;BME280;55182;56.864;60.554;2023-11-25T08:29:24;75536.00;;;-143.60;89.05
68329;BME280;55182;56.864;60.554;2023-11-25T08:31:49;75538.03;;;-143.60;89.33
68329;BME280;55182;56.864;60.554;2023-11-25T08:34:15;75536.00;;;-143.60;89.25
68329;BME280;55182;56.864;60.554;2023-11-25T08:36:40;75519.94;;;-143.60;89.69
68329;BME280;55182;56.864;60.554;2023-11-25T08:39:06;75513.91;;;-143.60;89.74
68329;BME280;55182;56.864;60.554;2023-11-25T08:41:31;75507.88;;;-143.60;89.73
68329;BME280;55182;56.864;60.554;2023-11-25T08:43:56;75507.88;;;-143.60;89.63
68329;BME280;55182;56.864;60.554;2023-11-25T08:46:22;75507.88;;;-143.60;89.81
68329;BME280;55182;56.864;60.554;2023-11-25T08:48:47;75495.81;;;-143.60;90.29
68329;BME280;55182;56.864;60.554;2023-11-25T08:51:13;75499.84;;;-143.60;90.64
68329;BME280;55182;56.864;60.554;2023-11-25T08:53:38;75495.81;;;-143.60;90.91
68329;BME280;55182;56.864;60.554;2023-11-25T08:56:04;75491.81;;;-143.60;91.55
68329;BME280;55182;56.864;60.554;2023-11-25T08:58:29;75485.78;;;-143.60;91.74
68329;BME280;55182;56.864;60.554;2023-11-25T09:00:55;75487.78;;;-143.60;91.69
68329;BME280;55182;56.864;60.554;2023-11-25T09:03:21;75481.75;;;-143.60;92.09
68329;BME280;55182;56.864;60.554;2023-11-25T09:05:46;75479.75;;;-143.60;91.94
68329;BME280;55182;56.864;60.554;2023-11-25T09:08:13;75475.72;;;-143.60;92.14
68329;BME280;55182;56.864;60.554;2023-11-25T09:10:38;75473.72;;;-143.60;92.12
68329;BME280;55182;56.864;60.554;2023-11-25T09:13:04;75459.66;;;-143.60;92.11
68329;BME280;55182;56.864;60.554;2023-11-25T09:15:29;75457.66;;;-143.60;92.12
68329;BME280;55182;56.864;60.554;2023-11-25T09:17:55;75439.56;;;-143.60;91.84
68329;BME280;55182;56.864;60.554;2023-11-25T09:20:20;75431.53;;;-143.60;91.75
68329;BME280;55182;56.864;60.554;2023-11-25T09:22:46;75419.47;;;-143.60;91.28
68329;BME280;55182;56.864;60.554;2023-11-25T09:25:11;75423.50;;;-143.60;90.99
68329;BME280;55182;56.864;60.554;2023-11-25T09:27:40;75411.44;;;-143.60;90.75
68329;BME280;55182;56.864;60.554;2023-11-25T09:30:06;75395.38;;;-143.60;90.70
68329;BME280;55182;56.864;60.554;2023-11-25T09:32:32;75383.31;;;-143.60;90.38
68329;BME280;55182;56.864;60.554;2023-11-25T09:34:58;75383.31;;;-143.60;90.22
68329;BME280;55182;56.864;60.554;2023-11-25T09:37:23;75375.28;;;-143.60;89.84
68329;BME280;55182;56.864;60.554;2023-11-25T09:39:49;75371.25;;;-143.60;89.87
68329;BME280;55182;56.864;60.554;2023-11-25T09:42:14;75357.19;;;-143.60;89.92
68329;BME280;55182;56.864;60.554;2023-11-25T09:44:40;75351.16;;;-143.60;89.99
68329;BME280;55182;56.864;60.554;2023-11-25T09:47:05;75365.22;;;-143.60;89.64
68329;BME280;55182;56.864;60.554;2023-11-25T09:49:31;75355.19;;;-143.60;89.73
68329;BME280;55182;56.864;60.554;2023-11-25T09:52:00;75353.19;;;-143.60;89.94
68329;BME280;55182;56.864;60.554;2023-11-25T09:54:26;75351.16;;;-143.60;90.04
68329;BME280;55182;56.864;60.554;2023-11-25T09:56:51;75351.16;;;-143.60;89.84
68329;BME280;55182;56.864;60.554;2023-11-25T09:59:18;75359.22;;;-143.60;89.72
68329;BME280;55182;56.864;60.554;2023-11-25T10:01:43;75355.19;;;-143.60;90.04
68329;BME280;55182;56.864;60.554;2023-11-25T10:04:10;75347.16;;;-143.60;89.94
68329;BME280;55182;56.864;60.554;2023-11-25T10:06:36;75343.13;;;-143.60;89.99
68329;BME280;55182;56.864;60.554;2023-11-25T10:09:02;75339.13;;;-143.60;90.41
68329;BME280;55182;56.864;60.554;2023-11-25T10:11:28;75335.09;;;-143.60;90.48
68329;BME280;55182;56.864;60.554;2023-11-25T10:13:54;75329.06;;;-143.60;90.49
68329;BME280;55182;56.864;60.554;2023-11-25T10:16:26;75331.06;;;-143.60;90.78
68329;BME280;55182;56.864;60.554;2023-11-25T10:18:52;75321.03;;;-143.60;90.94
68329;BME280;55182;56.864;60.554;2023-11-25T10:21:18;75315.00;;;-143.60;90.93
68329;BME280;55182;56.864;60.554;2023-11-25T10:23:44;75315.00;;;-143.60;91.22
68329;BME280;55182;56.864;60.554;2023-11-25T10:26:10;75306.97;;;-143.60;91.10
68329;BME280;55182;56.864;60.554;2023-11-25T10:28:35;75292.91;;;-143.60;91.25
68329;BME280;55182;56.864;60.554;2023-11-25T10:31:04;75298.94;;;-143.60;90.99
68329;BME280;55182;56.864;60.554;2023-11-25T10:33:29;75286.88;;;-143.60;91.12
68329;BME280;55182;56.864;60.554;2023-11-25T10:35:56;75282.88;;;-143.60;91.02
68329;BME280;55182;56.864;60.554;2023-11-25T10:38:22;75282.88;;;-143.60;91.15
68329;BME280;55182;56.864;60.554;2023-11-25T10:41:00;75280.84;;;-143.60;91.14
68329;BME280;55182;56.864;60.554;2023-11-25T10:43:27;75278.84;;;-143.60;91.04
68329;BME280;55182;56.864;60.554;2023-11-25T10:46:02;75270.81;;;-143.60;91.20
68329;BME280;55182;56.864;60.554;2023-11-25T10:48:28;75260.75;;;-143.60;91.13
68329;BME280;55182;56.864;60.554;2023-11-25T10:50:54;75258.75;;;-143.60;91.32
68329;BME280;55182;56.864;60.554;2023-11-25T10:53:19;75262.78;;;-143.60;91.53
68329;BME280;55182;56.864;60.554;2023-11-25T10:55:45;75258.75;;;-143.60;91.38
68329;BME280;55182;56.864;60.554;2023-11-25T10:58:11;75254.72;;;-143.60;91.51
68329;BME280;55182;56.864;60.554;2023-11-25T11:00:36;75256.75;;;-143.60;91.58
68329;BME280;55182;56.864;60.554;2023-11-25T11:03:02;75244.69;;;-143.60;91.63
68329;BME280;55182;56.864;60.554;2023-11-25T11:08:00;75244.69;;;-143.60;91.96
68329;BME280;55182;56.864;60.554;2023-11-25T11:10:33;75242.69;;;-143.60;92.04
68329;BME280;55182;56.864;60.554;2023-11-25T11:13:03;75240.66;;;-143.60;92.28
68329;BME280;55182;56.864;60.554;2023-11-25T11:15:30;75244.69;;;-143.60;92.34
68329;BME280;55182;56.864;60.554;2023-11-25T11:20:26;75230.63;;;-143.60;92.42
68329;BME280;55182;56.864;60.554;2023-11-25T11:22:54;75226.59;;;-143.60;92.69
68329;BME280;55182;56.864;60.554;2023-11-25T11:26:05;75222.59;;;-143.60;92.94
68329;BME280;55182;56.864;60.554;2023-11-25T11:33:26;75222.59;;;-143.60;93.00
68329;BME280;55182;56.864;60.554;2023-11-25T11:35:51;75218.56;;;-143.60;93.09
68329;BME280;55182;56.864;60.554;2023-11-25T11:38:23;75218.56;;;-143.60;93.32
68329;BME280;55182;56.864;60.554;2023-11-25T11:41:31;75220.59;;;-143.60;93.18
68329;BME280;55182;56.864;60.554;2023-11-25T11:43:37;75218.56;;;-143.60;93.26
68329;BME280;55182;56.864;60.554;2023-11-25T11:46:03;75222.59;;;-143.60;93.37
68329;BME280;55182;56.864;60.554;2023-11-25T11:48:29;75220.59;;;-143.60;93.58
68329;BME280;55182;56.864;60.554;2023-11-25T11:50:55;75220.59;;;-143.60;93.58
68329;BME280;55182;56.864;60.554;2023-11-25T11:53:20;75208.53;;;-143.60;93.32
68329;BME280;55182;56.864;60.554;2023-11-25T11:55:55;75198.47;;;-143.60;93.28
68329;BME280;55182;56.864;60.554;2023-11-25T11:58:24;75198.47;;;-143.60;93.28
68329;BME280;55182;56.864;60.554;2023-11-25T12:03:24;75174.38;;;-143.60;93.48
68329;BME280;55182;56.864;60.554;2023-11-25T12:05:49;75166.34;;;-143.60;93.75
68329;BME280;55182;56.864;60.554;2023-11-25T12:08:15;75166.34;;;-143.60;93.66
68329;BME280;55182;56.864;60.554;2023-11-25T12:10:40;75162.31;;;-143.60;93.84
68329;BME280;55182;56.864;60.554;2023-11-25T12:13:06;75158.31;;;-143.60;93.68
68329;BME280;55182;56.864;60.554;2023-11-25T12:15:31;75158.31;;;-143.60;93.55
68329;BME280;55182;56.864;60.554;2023-11-25T12:17:57;75154.28;;;-143.60;93.64
68329;BME280;55182;56.864;60.554;2023-11-25T12:20:23;75150.25;;;-143.60;93.29
68329;BME280;55182;56.864;60.554;2023-11-25T12:22:50;75144.25;;;-143.60;93.49
68329;BME280;55182;56.864;60.554;2023-11-25T12:25:15;75138.22;;;-143.60;93.28
68329;BME280;55182;56.864;60.554;2023-11-25T12:27:51;75128.16;;;-143.60;93.41
68329;BME280;55182;56.864;60.554;2023-11-25T12:30:18;75116.13;;;-143.60;93.37
68329;BME280;55182;56.864;60.554;2023-11-25T12:32:43;75110.09;;;-143.60;93.27
68329;BME280;55182;56.864;60.554;2023-11-25T12:35:09;75110.09;;;-143.60;93.16
68329;BME280;55182;56.864;60.554;2023-11-25T12:37:34;75112.09;;;-143.60;93.40